sensor_id;sensor_type;location;lat;lon;timestamp;pressure;altitude;pressure_sealevel;temperature;humidity
64614;BME280;51025;37.772;-122.432;2022-07-29T00:01:45;100706.66;;;19.81;34.85
64614;BME280;51025;37.772;-122.432;2022-07-29T00:04:14;100697.32;;;20.30;34.76
64614;BME280;51025;37.772;-122.432;2022-07-29T00:06:42;100697.20;;;19.63;34.99
64614;BME280;51025;37.772;-122.432;2022-07-29T00:09:11;100700.44;;;20.06;34.99
64614;BME280;51025;37.772;-122.432;2022-07-29T00:11:39;100689.73;;;19.40;34.85
64614;BME280;51025;37.772;-122.432;2022-07-29T00:14:08;100690.58;;;20.07;34.54
64614;BME280;51025;37.772;-122.432;2022-07-29T00:16:36;100687.74;;;20.23;34.41
64614;BME280;51025;37.772;-122.432;2022-07-29T00:19:05;100684.52;;;19.86;34.83
64614;BME280;51025;37.772;-122.432;2022-07-29T00:21:34;100681.69;;;20.61;34.90
64614;BME280;51025;37.772;-122.432;2022-07-29T00:24:03;100682.16;;;20.35;34.81
64614;BME280;51025;37.772;-122.432;2022-07-29T00:26:32;100686.47;;;19.86;34.83
64614;BME280;51025;37.772;-122.432;2022-07-29T00:29:01;100688.03;;;19.60;35.14
64614;BME280;51025;37.772;-122.432;2022-07-29T00:31:30;100691.00;;;20.03;34.71
64614;BME280;51025;37.772;-122.432;2022-07-29T00:33:59;100690.46;;;20.25;34.91
64614;BME280;51025;37.772;-122.432;2022-07-29T00:36:27;100688.74;;;20.59;34.97
64614;BME280;51025;37.772;-122.432;2022-07-29T00:38:56;100681.51;;;19.59;35.17
64614;BME280;51025;37.772;-122.432;2022-07-29T00:41:24;100671.08;;;20.44;35.06
64614;BME280;51025;37.772;-122.432;2022-07-29T00:43:53;100662.31;;;19.73;35.08
64614;BME280;51025;37.772;-122.432;2022-07-29T00:46:22;100660.63;;;19.58;35.20
64614;BME280;51025;37.772;-122.432;2022-07-29T00:48:50;100662.72;;;19.97;34.84
64614;BME280;51025;37.772;-122.432;2022-07-29T00:51:19;100660.14;;;19.61;35.26
64614;BME280;51025;37.772;-122.432;2022-07-29T00:53:48;100665.68;;;19.79;35.08
64614;BME280;51025;37.772;-122.432;2022-07-29T00:56:16;100660.98;;;19.69;35.19
64614;BME280;51025;37.772;-122.432;2022-07-29T00:58:45;100661.76;;;19.84;35.00
64614;BME280;51025;37.772;-122.432;2022-07-29T01:01:15;100663.31;;;19.83;34.99
64614;BME280;51025;37.772;-122.432;2022-07-29T01:03:43;100659.40;;;19.88;34.91
64614;BME280;51025;37.772;-122.432;2022-07-29T01:06:11;100665.90;;;19.99;35.23
64614;BME280;51025;37.772;-122.432;2022-07-29T01:08:39;100663.24;;;19.65;34.74
64614;BME280;51025;37.772;-122.432;2022-07-29T01:11:08;100666.70;;;19.84;34.92
64614;BME280;51025;37.772;-122.432;2022-07-29T01:13:37;100658.51;;;19.91;34.45
64614;BME280;51025;37.772;-122.432;2022-07-29T01:16:13;100661.05;;;19.78;34.95
64614;BME280;51025;37.772;-122.432;2022-07-29T01:18:47;100663.17;;;19.85;34.84
64614;BME280;51025;37.772;-122.432;2022-07-29T01:21:33;100660.27;;;20.25;34.88
64614;BME280;51025;37.772;-122.432;2022-07-29T01:24:23;100661.44;;;19.97;34.77
64614;BME280;51025;37.772;-122.432;2022-07-29T01:27:01;100661.06;;;19.83;34.87
64614;BME280;51025;37.772;-122.432;2022-07-29T01:29:35;100666.07;;;19.87;34.80
64614;BME280;51025;37.772;-122.432;2022-07-29T01:32:08;100667.93;;;19.66;35.03
64614;BME280;51025;37.772;-122.432;2022-07-29T01:34:43;100674.67;;;19.47;34.87
64614;BME280;51025;37.772;-122.432;2022-07-29T01:37:20;100668.99;;;20.37;34.72
64614;BME280;51025;37.772;-122.432;2022-07-29T01:39:52;100673.67;;;20.02;34.65
64614;BME280;51025;37.772;-122.432;2022-07-29T01:42:29;100673.49;;;20.36;34.80
64614;BME280;51025;37.772;-122.432;2022-07-29T01:45:01;100675.37;;;19.69;35.17
64614;BME280;51025;37.772;-122.432;2022-07-29T01:47:37;100672.33;;;19.73;35.21
64614;BME280;51025;37.772;-122.432;2022-07-29T01:50:11;100675.64;;;20.30;35.07
64614;BME280;51025;37.772;-122.432;2022-07-29T01:52:47;100674.90;;;19.42;35.14
64614;BME280;51025;37.772;-122.432;2022-07-29T01:55:18;100674.84;;;20.31;35.10
64614;BME280;51025;37.772;-122.432;2022-07-29T01:57:49;100671.60;;;20.29;35.15
64614;BME280;51025;37.772;-122.432;2022-07-29T02:00:19;100669.69;;;20.11;34.84
64614;BME280;51025;37.772;-122.432;2022-07-29T02:02:49;100675.44;;;19.73;35.31
64614;BME280;51025;37.772;-122.432;2022-07-29T02:05:21;100680.03;;;20.24;35.21
64614;BME280;51025;37.772;-122.432;2022-07-29T02:07:52;100675.74;;;19.62;35.43
64614;BME280;51025;37.772;-122.432;2022-07-29T02:10:25;100671.48;;;19.78;35.26
64614;BME280;51025;37.772;-122.432;2022-07-29T02:12:56;100669.62;;;19.76;35.26
64614;BME280;51025;37.772;-122.432;2022-07-29T02:15:27;100675.36;;;19.53;35.53
64614;BME280;51025;37.772;-122.432;2022-07-29T02:17:59;100670.58;;;20.04;35.42
64614;BME280;51025;37.772;-122.432;2022-07-29T02:20:30;100675.08;;;20.48;35.31
64614;BME280;51025;37.772;-122.432;2022-07-29T02:23:01;100672.79;;;19.77;35.23
64614;BME280;51025;37.772;-122.432;2022-07-29T02:25:30;100673.72;;;20.36;35.46
64614;BME280;51025;37.772;-122.432;2022-07-29T02:28:00;100681.92;;;19.91;35.60
64614;BME280;51025;37.772;-122.432;2022-07-29T02:30:31;100681.03;;;19.48;35.65
64614;BME280;51025;37.772;-122.432;2022-07-29T02:33:02;100683.29;;;19.82;35.77
64614;BME280;51025;37.772;-122.432;2022-07-29T02:35:32;100689.86;;;19.85;35.77
64614;BME280;51025;37.772;-122.432;2022-07-29T02:38:01;100688.35;;;19.53;35.64
64614;BME280;51025;37.772;-122.432;2022-07-29T02:40:31;100687.12;;;19.85;35.73
64614;BME280;51025;37.772;-122.432;2022-07-29T02:43:03;100678.91;;;19.86;35.71
64614;BME280;51025;37.772;-122.432;2022-07-29T02:45:34;100677.08;;;19.90;35.68
64614;BME280;51025;37.772;-122.432;2022-07-29T02:48:06;100673.83;;;19.35;35.79
64614;BME280;51025;37.772;-122.432;2022-07-29T02:50:44;100674.42;;;19.08;35.69
64614;BME280;51025;37.772;-122.432;2022-07-29T02:53:19;100681.77;;;19.37;35.86
64614;BME280;51025;37.772;-122.432;2022-07-29T02:55:55;100684.03;;;20.34;34.90
64614;BME280;51025;37.772;-122.432;2022-07-29T02:58:28;100690.31;;;20.69;35.40
64614;BME280;51025;37.772;-122.432;2022-07-29T03:00:59;100691.65;;;19.01;36.43
64614;BME280;51025;37.772;-122.432;2022-07-29T03:03:32;100696.37;;;19.58;36.63
64614;BME280;51025;37.772;-122.432;2022-07-29T03:06:04;100695.14;;;20.04;36.07
64614;BME280;51025;37.772;-122.432;2022-07-29T03:08:33;100691.27;;;19.95;36.19
64614;BME280;51025;37.772;-122.432;2022-07-29T03:11:03;100694.95;;;20.01;36.10
64614;BME280;51025;37.772;-122.432;2022-07-29T03:13:33;100697.36;;;19.48;36.70
64614;BME280;51025;37.772;-122.432;2022-07-29T03:16:04;100697.36;;;19.05;36.75
64614;BME280;51025;37.772;-122.432;2022-07-29T03:18:34;100698.71;;;19.12;36.65
64614;BME280;51025;37.772;-122.432;2022-07-29T03:21:04;100709.08;;;19.16;36.57
64614;BME280;51025;37.772;-122.432;2022-07-29T03:23:32;100704.14;;;19.82;36.19
64614;BME280;51025;37.772;-122.432;2022-07-29T03:26:01;100715.66;;;19.21;36.42
64614;BME280;51025;37.772;-122.432;2022-07-29T03:28:30;100714.96;;;20.05;35.87
64614;BME280;51025;37.772;-122.432;2022-07-29T03:30:59;100721.26;;;19.92;35.98
64614;BME280;51025;37.772;-122.432;2022-07-29T03:33:27;100717.47;;;19.80;36.05
64614;BME280;51025;37.772;-122.432;2022-07-29T03:35:55;100711.90;;;19.34;36.14
64614;BME280;51025;37.772;-122.432;2022-07-29T03:38:26;100713.57;;;19.70;36.10
64614;BME280;51025;37.772;-122.432;2022-07-29T03:40:58;100711.59;;;19.33;36.08
64614;BME280;51025;37.772;-122.432;2022-07-29T03:43:32;100710.79;;;19.12;35.82
64614;BME280;51025;37.772;-122.432;2022-07-29T03:46:04;100710.05;;;20.10;35.54
64614;BME280;51025;37.772;-122.432;2022-07-29T03:48:36;100710.67;;;19.41;35.90
64614;BME280;51025;37.772;-122.432;2022-07-29T03:51:05;100709.78;;;19.56;35.22
64614;BME280;51025;37.772;-122.432;2022-07-29T03:53:34;100714.37;;;19.76;35.87
64614;BME280;51025;37.772;-122.432;2022-07-29T03:56:04;100714.53;;;19.46;35.75
64614;BME280;51025;37.772;-122.432;2022-07-29T03:58:35;100715.86;;;19.74;35.47
64614;BME280;51025;37.772;-122.432;2022-07-29T04:01:04;100710.78;;;19.08;35.71
64614;BME280;51025;37.772;-122.432;2022-07-29T04:03:34;100704.11;;;19.52;35.69
64614;BME280;51025;37.772;-122.432;2022-07-29T04:06:05;100709.65;;;19.56;35.56
64614;BME280;51025;37.772;-122.432;2022-07-29T04:08:35;100707.09;;;19.80;35.68
64614;BME280;51025;37.772;-122.432;2022-07-29T04:11:04;100704.83;;;19.79;35.73
64614;BME280;51025;37.772;-122.432;2022-07-29T04:13:34;100707.77;;;19.59;35.87
64614;BME280;51025;37.772;-122.432;2022-07-29T04:16:03;100706.21;;;19.58;35.49
64614;BME280;51025;37.772;-122.432;2022-07-29T04:18:32;100711.42;;;19.32;35.78
64614;BME280;51025;37.772;-122.432;2022-07-29T04:21:01;100709.18;;;19.64;35.39
64614;BME280;51025;37.772;-122.432;2022-07-29T04:23:30;100711.87;;;19.86;35.52
64614;BME280;51025;37.772;-122.432;2022-07-29T04:25:59;100716.34;;;18.89;35.72
64614;BME280;51025;37.772;-122.432;2022-07-29T04:28:27;100719.98;;;19.42;35.60
64614;BME280;51025;37.772;-122.432;2022-07-29T04:30:56;100727.12;;;19.89;35.49
64614;BME280;51025;37.772;-122.432;2022-07-29T04:33:25;100723.34;;;19.67;35.69
64614;BME280;51025;37.772;-122.432;2022-07-29T04:35:54;100728.41;;;19.48;35.53
64614;BME280;51025;37.772;-122.432;2022-07-29T04:38:22;100728.01;;;19.72;35.58
64614;BME280;51025;37.772;-122.432;2022-07-29T04:40:51;100730.40;;;18.90;35.65
64614;BME280;51025;37.772;-122.432;2022-07-29T04:43:20;100734.76;;;19.94;35.69
64614;BME280;51025;37.772;-122.432;2022-07-29T04:45:49;100738.16;;;19.13;35.88
64614;BME280;51025;37.772;-122.432;2022-07-29T04:48:17;100748.93;;;19.59;35.74
64614;BME280;51025;37.772;-122.432;2022-07-29T04:50:45;100734.21;;;19.26;35.68
64614;BME280;51025;37.772;-122.432;2022-07-29T04:53:13;100741.32;;;19.53;35.84
64614;BME280;51025;37.772;-122.432;2022-07-29T04:55:42;100738.19;;;18.88;35.60
64614;BME280;51025;37.772;-122.432;2022-07-29T04:58:10;100734.05;;;19.51;35.81
64614;BME280;51025;37.772;-122.432;2022-07-29T05:00:40;100729.96;;;18.97;35.54
64614;BME280;51025;37.772;-122.432;2022-07-29T05:03:09;100737.19;;;19.38;35.98
64614;BME280;51025;37.772;-122.432;2022-07-29T05:05:38;100737.88;;;18.77;35.75
64614;BME280;51025;37.772;-122.432;2022-07-29T05:08:07;100741.84;;;19.65;35.63
64614;BME280;51025;37.772;-122.432;2022-07-29T05:10:36;100745.62;;;18.76;35.80
64614;BME280;51025;37.772;-122.432;2022-07-29T05:13:05;100751.74;;;19.55;35.76
64614;BME280;51025;37.772;-122.432;2022-07-29T05:15:35;100752.86;;;19.50;35.72
64614;BME280;51025;37.772;-122.432;2022-07-29T05:18:04;100754.71;;;19.58;35.66
64614;BME280;51025;37.772;-122.432;2022-07-29T05:20:33;100747.71;;;19.58;35.66
64614;BME280;51025;37.772;-122.432;2022-07-29T05:23:02;100750.24;;;19.46;35.86
64614;BME280;51025;37.772;-122.432;2022-07-29T05:25:32;100758.19;;;19.77;35.93
64614;BME280;51025;37.772;-122.432;2022-07-29T05:28:00;100758.58;;;19.69;35.51
64614;BME280;51025;37.772;-122.432;2022-07-29T05:30:29;100756.53;;;19.40;35.86
64614;BME280;51025;37.772;-122.432;2022-07-29T05:32:57;100751.77;;;19.45;35.76
64614;BME280;51025;37.772;-122.432;2022-07-29T05:35:25;100756.82;;;19.58;35.72
64614;BME280;51025;37.772;-122.432;2022-07-29T05:37:53;100765.96;;;19.14;35.77
64614;BME280;51025;37.772;-122.432;2022-07-29T05:40:22;100771.09;;;19.45;35.82
64614;BME280;51025;37.772;-122.432;2022-07-29T05:42:51;100768.63;;;19.59;35.59
64614;BME280;51025;37.772;-122.432;2022-07-29T05:45:20;100766.49;;;19.16;35.67
64614;BME280;51025;37.772;-122.432;2022-07-29T05:47:49;100766.73;;;18.90;35.49
64614;BME280;51025;37.772;-122.432;2022-07-29T05:50:18;100763.91;;;19.20;35.64
64614;BME280;51025;37.772;-122.432;2022-07-29T05:52:46;100758.28;;;18.72;35.66
64614;BME280;51025;37.772;-122.432;2022-07-29T05:55:14;100753.56;;;19.51;35.67
64614;BME280;51025;37.772;-122.432;2022-07-29T05:57:43;100755.94;;;18.67;35.68
64614;BME280;51025;37.772;-122.432;2022-07-29T06:00:12;100751.73;;;19.06;35.71
64614;BME280;51025;37.772;-122.432;2022-07-29T06:02:40;100750.25;;;18.63;35.77
64614;BME280;51025;37.772;-122.432;2022-07-29T06:05:08;100747.99;;;19.01;35.71
64614;BME280;51025;37.772;-122.432;2022-07-29T06:07:37;100750.13;;;18.59;35.74
64614;BME280;51025;37.772;-122.432;2022-07-29T06:10:07;100743.94;;;19.95;35.45
64614;BME280;51025;37.772;-122.432;2022-07-29T06:12:36;100734.37;;;18.88;35.83
64614;BME280;51025;37.772;-122.432;2022-07-29T06:15:05;100728.20;;;19.22;35.46
64614;BME280;51025;37.772;-122.432;2022-07-29T06:17:34;100733.40;;;19.65;35.44
64614;BME280;51025;37.772;-122.432;2022-07-29T06:20:04;100724.88;;;19.37;35.79
64614;BME280;51025;37.772;-122.432;2022-07-29T06:22:33;100720.51;;;19.24;35.96
64614;BME280;51025;37.772;-122.432;2022-07-29T06:25:02;100715.95;;;19.11;35.59
64614;BME280;51025;37.772;-122.432;2022-07-29T06:27:30;100719.95;;;19.25;35.84
64614;BME280;51025;37.772;-122.432;2022-07-29T06:29:59;100717.79;;;19.30;35.81
64614;BME280;51025;37.772;-122.432;2022-07-29T06:32:27;100720.55;;;19.28;35.85
64614;BME280;51025;37.772;-122.432;2022-07-29T06:34:56;100731.80;;;19.17;36.00
64614;BME280;51025;37.772;-122.432;2022-07-29T06:37:25;100750.95;;;18.91;35.95
64614;BME280;51025;37.772;-122.432;2022-07-29T06:39:53;100749.75;;;19.23;35.85
64614;BME280;51025;37.772;-122.432;2022-07-29T06:42:22;100757.40;;;19.52;35.87
64614;BME280;51025;37.772;-122.432;2022-07-29T06:44:51;100762.41;;;18.94;35.82
64614;BME280;51025;37.772;-122.432;2022-07-29T06:47:20;100767.38;;;19.54;35.93
64614;BME280;51025;37.772;-122.432;2022-07-29T06:49:48;100757.76;;;18.47;35.75
64614;BME280;51025;37.772;-122.432;2022-07-29T06:52:16;100757.30;;;19.28;35.81
64614;BME280;51025;37.772;-122.432;2022-07-29T06:54:44;100760.54;;;18.90;35.26
64614;BME280;51025;37.772;-122.432;2022-07-29T06:57:13;100765.75;;;19.25;35.87
64614;BME280;51025;37.772;-122.432;2022-07-29T06:59:41;100765.25;;;19.24;35.80
64614;BME280;51025;37.772;-122.432;2022-07-29T07:02:10;100768.63;;;19.59;35.35
64614;BME280;51025;37.772;-122.432;2022-07-29T07:04:39;100772.03;;;18.51;35.79
64614;BME280;51025;37.772;-122.432;2022-07-29T07:07:08;100765.67;;;19.24;35.87
64614;BME280;51025;37.772;-122.432;2022-07-29T07:09:36;100771.78;;;18.38;35.87
64614;BME280;51025;37.772;-122.432;2022-07-29T07:12:06;100768.09;;;19.17;35.73
64614;BME280;51025;37.772;-122.432;2022-07-29T07:14:35;100764.73;;;19.26;35.80
64614;BME280;51025;37.772;-122.432;2022-07-29T07:17:03;100766.33;;;19.60;35.71
64614;BME280;51025;37.772;-122.432;2022-07-29T07:19:32;100774.24;;;19.11;35.85
64614;BME280;51025;37.772;-122.432;2022-07-29T07:22:00;100762.33;;;19.10;35.91
64614;BME280;51025;37.772;-122.432;2022-07-29T07:24:29;100765.13;;;19.46;35.83
64614;BME280;51025;37.772;-122.432;2022-07-29T07:26:57;100756.79;;;18.76;35.86
64614;BME280;51025;37.772;-122.432;2022-07-29T07:29:25;100758.32;;;19.18;35.73
64614;BME280;51025;37.772;-122.432;2022-07-29T07:31:53;100759.59;;;18.36;35.85
64614;BME280;51025;37.772;-122.432;2022-07-29T07:34:21;100766.07;;;18.89;35.76
64614;BME280;51025;37.772;-122.432;2022-07-29T07:36:49;100770.12;;;18.81;35.87
64614;BME280;51025;37.772;-122.432;2022-07-29T07:39:18;100768.13;;;19.34;35.63
64614;BME280;51025;37.772;-122.432;2022-07-29T07:41:46;100763.81;;;18.71;35.95
64614;BME280;51025;37.772;-122.432;2022-07-29T07:44:15;100754.83;;;19.22;35.83
64614;BME280;51025;37.772;-122.432;2022-07-29T07:46:44;100759.39;;;18.38;35.76
64614;BME280;51025;37.772;-122.432;2022-07-29T07:49:13;100760.91;;;19.25;35.69
64614;BME280;51025;37.772;-122.432;2022-07-29T07:51:41;100758.52;;;18.36;35.76
64614;BME280;51025;37.772;-122.432;2022-07-29T07:54:10;100760.35;;;19.07;35.95
64614;BME280;51025;37.772;-122.432;2022-07-29T07:56:38;100757.46;;;18.32;35.73
64614;BME280;51025;37.772;-122.432;2022-07-29T07:59:07;100756.54;;;19.17;35.63
64614;BME280;51025;37.772;-122.432;2022-07-29T08:01:36;100762.02;;;19.04;35.89
64614;BME280;51025;37.772;-122.432;2022-07-29T08:04:04;100762.02;;;19.02;35.95
64614;BME280;51025;37.772;-122.432;2022-07-29T08:06:33;100754.05;;;19.01;35.92
64614;BME280;51025;37.772;-122.432;2022-07-29T08:09:02;100750.09;;;18.63;36.01
64614;BME280;51025;37.772;-122.432;2022-07-29T08:11:31;100749.88;;;19.32;35.56
64614;BME280;51025;37.772;-122.432;2022-07-29T08:14:00;100748.15;;;19.03;35.83
64614;BME280;51025;37.772;-122.432;2022-07-29T08:16:29;100741.62;;;19.20;35.59
64614;BME280;51025;37.772;-122.432;2022-07-29T08:18:57;100741.49;;;18.66;35.88
64614;BME280;51025;37.772;-122.432;2022-07-29T08:21:29;100738.43;;;19.13;35.78
64614;BME280;51025;37.772;-122.432;2022-07-29T08:23:57;100736.58;;;19.51;35.63
64614;BME280;51025;37.772;-122.432;2022-07-29T08:26:25;100741.12;;;18.88;36.10
64614;BME280;51025;37.772;-122.432;2022-07-29T08:28:54;100741.23;;;19.17;35.64
64614;BME280;51025;37.772;-122.432;2022-07-29T08:31:23;100734.55;;;19.29;35.89
64614;BME280;51025;37.772;-122.432;2022-07-29T08:33:51;100738.42;;;18.73;35.75
64614;BME280;51025;37.772;-122.432;2022-07-29T08:36:20;100737.17;;;19.03;35.72
64614;BME280;51025;37.772;-122.432;2022-07-29T08:38:48;100733.59;;;19.03;35.78
64614;BME280;51025;37.772;-122.432;2022-07-29T08:41:17;100738.19;;;19.26;35.96
64614;BME280;51025;37.772;-122.432;2022-07-29T08:43:45;100735.88;;;18.59;35.86
64614;BME280;51025;37.772;-122.432;2022-07-29T08:46:14;100725.80;;;18.55;36.06
64614;BME280;51025;37.772;-122.432;2022-07-29T08:48:43;100733.26;;;19.02;35.75
64614;BME280;51025;37.772;-122.432;2022-07-29T08:51:15;100725.18;;;18.83;36.15
64614;BME280;51025;37.772;-122.432;2022-07-29T08:53:44;100734.10;;;18.89;35.93
64614;BME280;51025;37.772;-122.432;2022-07-29T08:56:14;100735.97;;;19.19;35.91
64614;BME280;51025;37.772;-122.432;2022-07-29T08:58:43;100737.62;;;18.50;36.08
64614;BME280;51025;37.772;-122.432;2022-07-29T09:01:16;100733.71;;;18.88;35.96
64614;BME280;51025;37.772;-122.432;2022-07-29T09:03:45;100728.13;;;18.11;35.94
64614;BME280;51025;37.772;-122.432;2022-07-29T09:06:15;100737.98;;;18.89;35.84
64614;BME280;51025;37.772;-122.432;2022-07-29T09:08:45;100733.92;;;18.51;35.93
64614;BME280;51025;37.772;-122.432;2022-07-29T09:11:14;100729.64;;;19.21;35.92
64614;BME280;51025;37.772;-122.432;2022-07-29T09:13:42;100734.71;;;18.43;36.07
64614;BME280;51025;37.772;-122.432;2022-07-29T09:16:11;100730.02;;;19.37;35.72
64614;BME280;51025;37.772;-122.432;2022-07-29T09:18:41;100729.54;;;17.94;36.06
64614;BME280;51025;37.772;-122.432;2022-07-29T09:21:13;100731.49;;;18.87;35.81
64614;BME280;51025;37.772;-122.432;2022-07-29T09:24:02;100741.38;;;18.09;35.80
64614;BME280;51025;37.772;-122.432;2022-07-29T09:26:33;100732.66;;;18.70;35.97
64614;BME280;51025;37.772;-122.432;2022-07-29T09:29:09;100726.20;;;19.24;35.81
64614;BME280;51025;37.772;-122.432;2022-07-29T09:31:40;100726.34;;;18.59;35.71
64614;BME280;51025;37.772;-122.432;2022-07-29T09:34:09;100726.46;;;18.80;35.97
64614;BME280;51025;37.772;-122.432;2022-07-29T09:36:40;100716.23;;;18.67;35.59
64614;BME280;51025;37.772;-122.432;2022-07-29T09:39:09;100721.26;;;18.88;35.93
64614;BME280;51025;37.772;-122.432;2022-07-29T09:41:48;100721.67;;;18.21;35.61
64614;BME280;51025;37.772;-122.432;2022-07-29T09:44:17;100722.24;;;18.79;35.88
64614;BME280;51025;37.772;-122.432;2022-07-29T09:46:57;100728.48;;;18.25;36.03
64614;BME280;51025;37.772;-122.432;2022-07-29T09:49:26;100728.19;;;18.89;35.83
64614;BME280;51025;37.772;-122.432;2022-07-29T09:52:11;100728.06;;;18.69;35.99
64614;BME280;51025;37.772;-122.432;2022-07-29T09:54:39;100726.76;;;18.07;35.80
64614;BME280;51025;37.772;-122.432;2022-07-29T09:57:09;100727.04;;;18.56;36.04
64614;BME280;51025;37.772;-122.432;2022-07-29T09:59:57;100717.99;;;18.36;35.91
64614;BME280;51025;37.772;-122.432;2022-07-29T10:02:30;100714.86;;;19.04;35.92
64614;BME280;51025;37.772;-122.432;2022-07-29T10:04:59;100708.59;;;19.07;35.98
64614;BME280;51025;37.772;-122.432;2022-07-29T10:07:44;100706.69;;;18.68;35.97
64614;BME280;51025;37.772;-122.432;2022-07-29T10:10:19;100706.79;;;19.09;35.45
64614;BME280;51025;37.772;-122.432;2022-07-29T10:12:51;100711.33;;;18.74;35.94
64614;BME280;51025;37.772;-122.432;2022-07-29T10:15:22;100706.98;;;18.98;36.03
64614;BME280;51025;37.772;-122.432;2022-07-29T10:17:53;100702.09;;;18.32;35.92
64614;BME280;51025;37.772;-122.432;2022-07-29T10:20:23;100702.25;;;19.11;35.89
64614;BME280;51025;37.772;-122.432;2022-07-29T10:22:52;100698.78;;;18.06;35.59
64614;BME280;51025;37.772;-122.432;2022-07-29T10:25:21;100699.08;;;18.84;35.61
64614;BME280;51025;37.772;-122.432;2022-07-29T10:27:50;100694.75;;;18.54;36.06
64614;BME280;51025;37.772;-122.432;2022-07-29T10:30:21;100697.21;;;18.92;35.97
64614;BME280;51025;37.772;-122.432;2022-07-29T10:33:34;100694.56;;;18.50;36.09
64614;BME280;51025;37.772;-122.432;2022-07-29T10:36:20;100698.32;;;18.82;36.18
64614;BME280;51025;37.772;-122.432;2022-07-29T10:38:58;100701.20;;;18.86;36.08
64614;BME280;51025;37.772;-122.432;2022-07-29T10:41:43;100696.95;;;18.67;35.79
64614;BME280;51025;37.772;-122.432;2022-07-29T10:44:18;100696.00;;;18.88;35.94
64614;BME280;51025;37.772;-122.432;2022-07-29T10:46:47;100701.91;;;18.47;36.09
64614;BME280;51025;37.772;-122.432;2022-07-29T10:49:17;100707.30;;;18.47;36.17
64614;BME280;51025;37.772;-122.432;2022-07-29T10:51:56;100705.12;;;17.74;35.98
64614;BME280;51025;37.772;-122.432;2022-07-29T10:54:47;100700.38;;;18.85;36.09
64614;BME280;51025;37.772;-122.432;2022-07-29T10:57:18;100703.41;;;18.96;35.87
64614;BME280;51025;37.772;-122.432;2022-07-29T10:59:48;100710.93;;;18.05;36.10
64614;BME280;51025;37.772;-122.432;2022-07-29T11:02:49;100708.02;;;18.79;36.05
64614;BME280;51025;37.772;-122.432;2022-07-29T11:05:19;100717.76;;;18.47;36.11
64614;BME280;51025;37.772;-122.432;2022-07-29T11:08:28;100714.86;;;18.64;36.20
64614;BME280;51025;37.772;-122.432;2022-07-29T11:12:02;100716.05;;;18.39;36.10
64614;BME280;51025;37.772;-122.432;2022-07-29T11:15:03;100719.54;;;18.74;36.17
64614;BME280;51025;37.772;-122.432;2022-07-29T11:18:04;100720.80;;;18.88;35.90
64614;BME280;51025;37.772;-122.432;2022-07-29T11:20:35;100713.95;;;18.62;35.89
64614;BME280;51025;37.772;-122.432;2022-07-29T11:23:19;100710.71;;;18.49;35.94
64614;BME280;51025;37.772;-122.432;2022-07-29T11:26:16;100707.65;;;18.65;35.89
64614;BME280;51025;37.772;-122.432;2022-07-29T11:28:54;100701.16;;;18.58;35.91
64614;BME280;51025;37.772;-122.432;2022-07-29T11:31:35;100701.59;;;19.23;35.89
64614;BME280;51025;37.772;-122.432;2022-07-29T11:34:23;100697.12;;;18.46;35.91
64614;BME280;51025;37.772;-122.432;2022-07-29T11:37:24;100704.25;;;18.26;36.14
64614;BME280;51025;37.772;-122.432;2022-07-29T11:40:24;100700.58;;;18.50;35.93
64614;BME280;51025;37.772;-122.432;2022-07-29T11:42:53;100697.73;;;18.67;36.03
64614;BME280;51025;37.772;-122.432;2022-07-29T11:45:31;100695.22;;;18.59;36.20
64614;BME280;51025;37.772;-122.432;2022-07-29T11:48:20;100692.85;;;18.39;36.03
64614;BME280;51025;37.772;-122.432;2022-07-29T11:50:48;100698.92;;;18.68;36.07
64614;BME280;51025;37.772;-122.432;2022-07-29T11:53:17;100693.51;;;19.10;36.05
64614;BME280;51025;37.772;-122.432;2022-07-29T11:55:47;100696.33;;;18.15;36.21
64614;BME280;51025;37.772;-122.432;2022-07-29T11:58:23;100702.34;;;19.12;36.14
64614;BME280;51025;37.772;-122.432;2022-07-29T12:00:52;100704.16;;;18.46;36.25
64614;BME280;51025;37.772;-122.432;2022-07-29T12:03:25;100704.15;;;19.02;36.23
64614;BME280;51025;37.772;-122.432;2022-07-29T12:05:54;100701.66;;;18.29;36.19
64614;BME280;51025;37.772;-122.432;2022-07-29T12:08:23;100698.33;;;18.62;36.16
64614;BME280;51025;37.772;-122.432;2022-07-29T12:10:52;100705.81;;;18.71;36.01
64614;BME280;51025;37.772;-122.432;2022-07-29T12:13:21;100700.15;;;18.63;36.10
64614;BME280;51025;37.772;-122.432;2022-07-29T12:15:54;100711.35;;;18.54;36.34
64614;BME280;51025;37.772;-122.432;2022-07-29T12:18:23;100708.98;;;18.18;36.38
64614;BME280;51025;37.772;-122.432;2022-07-29T12:20:59;100707.91;;;18.15;36.22
64614;BME280;51025;37.772;-122.432;2022-07-29T12:23:27;100707.15;;;18.68;36.16
64614;BME280;51025;37.772;-122.432;2022-07-29T12:25:57;100705.04;;;18.61;36.13
64614;BME280;51025;37.772;-122.432;2022-07-29T12:28:25;100702.95;;;18.45;36.23
64614;BME280;51025;37.772;-122.432;2022-07-29T12:30:53;100710.12;;;17.99;36.59
64614;BME280;51025;37.772;-122.432;2022-07-29T12:33:22;100712.89;;;18.88;36.20
64614;BME280;51025;37.772;-122.432;2022-07-29T12:35:54;100712.52;;;18.34;36.52
64614;BME280;51025;37.772;-122.432;2022-07-29T12:38:23;100713.85;;;18.89;36.18
64614;BME280;51025;37.772;-122.432;2022-07-29T12:40:53;100716.41;;;18.11;36.20
64614;BME280;51025;37.772;-122.432;2022-07-29T12:43:23;100707.86;;;18.48;36.31